Maanti, Mongolia
Current Conditions -  °F | °C
As of 9:30 AM on Saturday 29 Nov 2014 (Local Time) from ZMUB Reporting Station
Smoke Smoke  
Wind Chill: -12°   Ceiling: Unl
Heat Index: -2°   Visibility: 3mi
Dew Point: -8°   Wind: 4mph
Humidity: 78%   Direction: 330°NNW
Pressure: 29.85"   Gusts: NA
Location:  47.3°N, 107.48°E
Report Text: ZMUB 290130Z 33002MPS 5000NW FU NSC M19/M22 Q1011 NOSIG RMK QFE651.3 73 NW MO
Loading
Personal Weather Stations






























Interactive Weather Map New forecast layout! Learn more

10-Day Weather Forecast

Advertisements
Track Severe Weather on mobile